LFBC 171900Z AUTO 36005KT CAVOK 22/18 Q1019 NOSIG
LFBD 171900Z AUTO 34007KT CAVOK 24/17 Q1019 NOSIG